Asuzanmaru — JD2969 — position and weather

sailwx.info

Track history (hours):
 
Tides and Currents Weather Stations Pressure Air Temp Water Temp Dewpoint Dewpoint Depression Visibility Wind Speed Wind Dir Waves Ship Positions

Asuzanmaru

Last reported at 2018-Feb-22 04:28 UTC. Time now 2018-Feb-22 04:49 UTC.
Position N 34°58' E 136°39'.

Length 65 m; draft 3.7 m.

Type: Tanker. MMSI: 431001002.

Date/timePositionNaut miles runAvg speedWind from/ knotsBaromVisibWave heightAir tempDewpointWater temp
2018-Feb-22 04:28N 34°58' E 136°39'0 0.1
2018-Feb-22 03:58N 34°58' E 136°39'0 0.0
2018-Feb-22 03:28N 34°58' E 136°39'0 0.0
2018-Feb-22 02:52N 34°58' E 136°39'0 0.0
2018-Feb-22 02:28N 34°58' E 136°39'4 7.9
2018-Feb-22 02:00N 34°55' E 136°42'613.0
2018-Feb-22 01:30N 34°49' E 136°46'712.8
2018-Feb-22 00:59N 34°43' E 136°50'1912.2
2018-Feb-21 23:26N 34°33' E 137°09'6412.4
2018-Feb-21 18:17N 34°34' E 138°27'512.5
2018-Feb-21 17:52N 34°35' E 138°33'612.3
2018-Feb-21 17:22N 34°35' E 138°41'712.7
2018-Feb-21 16:51N 34°35' E 138°49'512.4
2018-Feb-21 16:27N 34°35' E 138°55'1012.2
2018-Feb-21 15:36N 34°43' E 139°03'413.9
2018-Feb-21 15:20N 34°46' E 139°06'1412.8
2018-Feb-21 14:16N 34°57' E 139°16'312.7
2018-Feb-21 14:00N 34°58' E 139°20'712.4
2018-Feb-21 13:26N 35°01' E 139°27'512.7
2018-Feb-21 13:00N 35°04' E 139°33'713.3
2018-Feb-21 12:31N 35°07' E 139°41'713.5
2018-Feb-21 12:00N 35°12' E 139°46'612.4
2018-Feb-21 11:30N 35°18' E 139°44'612.2
2018-Feb-21 11:00N 35°24' E 139°43'713.1
2018-Feb-21 10:30N 35°28' E 139°50'612.8
2018-Feb-21 10:00N 35°30' E 139°57'4 8.9
2018-Feb-21 09:30N 35°31' E 140°03'0 0.0
2018-Feb-21 09:00N 35°31' E 140°03'0 0.0
2018-Feb-21 08:29N 35°31' E 140°03'0 0.0
2018-Feb-21 07:58N 35°31' E 140°03'0 0.0
2018-Feb-21 07:30N 35°31' E 140°03'0 0.0
2018-Feb-21 07:00N 35°31' E 140°03'0 0.0
2018-Feb-21 06:30N 35°31' E 140°03'0 0.0
2018-Feb-21 06:00N 35°31' E 140°03'0 0.0
2018-Feb-21 05:30N 35°31' E 140°03'0 0.0
2018-Feb-21 05:00N 35°31' E 140°03'1 1.0
2018-Feb-21 04:30N 35°31' E 140°02'1 1.2
2018-Feb-21 04:00N 35°31' E 140°01'0 0.0
2018-Feb-21 03:30N 35°31' E 140°01'0 0.0
2018-Feb-21 02:57N 35°31' E 140°01'0 0.0
2018-Feb-21 02:30N 35°31' E 140°01'0 0.0
2018-Feb-21 02:00N 35°31' E 140°01'0 0.0
2018-Feb-21 01:30N 35°31' E 140°01'0 0.0
2018-Feb-21 01:00N 35°31' E 140°01'0 0.0
2018-Feb-21 00:30N 35°31' E 140°01'0 0.0
2018-Feb-21 00:00N 35°31' E 140°01'0 0.0
2018-Feb-20 23:30N 35°31' E 140°01'0 0.0
2018-Feb-20 23:00N 35°31' E 140°01'0 0.0
2018-Feb-20 22:30N 35°31' E 140°01'0 0.0
2018-Feb-20 22:00N 35°31' E 140°01'0 0.0
2018-Feb-20 21:30N 35°31' E 140°01'1 2.2
2018-Feb-20 21:00N 35°31' E 140°00'612.2
2018-Feb-20 20:30N 35°29' E 139°53'612.1
2018-Feb-20 20:00N 35°25' E 139°47'612.4
2018-Feb-20 19:30N 35°19' E 139°44'612.1
2018-Feb-20 19:00N 35°14' E 139°47'612.4
2018-Feb-20 18:30N 35°08' E 139°45'611.7
2018-Feb-20 18:00N 35°04' E 139°40'611.7
2018-Feb-20 17:29N 34°60' E 139°34'1711.8
2018-Feb-20 16:04N 34°49' E 139°19'112.9
2018-Feb-20 15:58N 34°48' E 139°18'1013.6
2018-Feb-20 15:15N 34°41' E 139°10'312.4
2018-Feb-20 15:00N 34°39' E 139°06'812.5
2018-Feb-20 14:24N 34°36' E 138°58'613.7
2018-Feb-20 13:56N 34°34' E 138°50'612.7
2018-Feb-20 13:29N 34°33' E 138°44'712.4
2018-Feb-20 12:56N 34°32' E 138°35'913.1
2018-Feb-20 12:17N 34°32' E 138°25'712.8
2018-Feb-20 11:46N 34°32' E 138°17'4513.1
2018-Feb-20 08:17N 34°32' E 137°22'2412.1
2018-Feb-20 06:19N 34°38' E 136°54'412.6
2018-Feb-20 06:00N 34°40' E 136°50'613.1
2018-Feb-20 05:30N 34°46' E 136°47'612.9
2018-Feb-20 05:00N 34°52' E 136°43'612.7
2018-Feb-20 04:30N 34°58' E 136°41'2 3.5
2018-Feb-20 04:00N 34°58' E 136°39'0 0.0
2018-Feb-20 03:29N 34°58' E 136°39'0 0.0
2018-Feb-20 03:00N 34°58' E 136°39'0 0.0
2018-Feb-20 02:30N 34°58' E 136°39'0 0.0
2018-Feb-20 01:58N 34°58' E 136°39'0 0.0
2018-Feb-20 01:30N 34°58' E 136°39'0 0.0
2018-Feb-20 01:00N 34°58' E 136°39'0 0.0
2018-Feb-20 00:30N 34°58' E 136°39'0 0.0
2018-Feb-20 00:00N 34°58' E 136°39'0 0.0
2018-Feb-19 23:30N 34°58' E 136°39'0 0.0
2018-Feb-19 23:00N 34°58' E 136°39'2 4.8
2018-Feb-19 22:30N 34°56' E 136°41'1 1.3
2018-Feb-19 22:00N 34°55' E 136°41'0 0.0
2018-Feb-19 21:30N 34°55' E 136°41'0 0.0
2018-Feb-19 20:59N 34°55' E 136°41'0 0.0
2018-Feb-19 20:30N 34°55' E 136°41'0 0.0
2018-Feb-19 20:00N 34°55' E 136°41'0 0.0
2018-Feb-19 19:30N 34°55' E 136°41'0 0.0
2018-Feb-19 19:00N 34°55' E 136°41'0 0.0
2018-Feb-19 18:30N 34°55' E 136°41'0 0.0
2018-Feb-19 18:00N 34°55' E 136°41'0 0.0
2018-Feb-19 17:30N 34°55' E 136°41'0 0.1
2018-Feb-19 17:00N 34°55' E 136°41'0 0.1
2018-Feb-19 16:30N 34°55' E 136°41'0 0.0
2018-Feb-19 16:00N 34°55' E 136°41'0 0.0
2018-Feb-19 15:30N 34°55' E 136°41'0 0.0
2018-Feb-19 15:00N 34°55' E 136°41'0 0.0
2018-Feb-19 14:30N 34°55' E 136°41'0 0.0
2018-Feb-19 14:00N 34°55' E 136°41'0 0.0
2018-Feb-19 13:30N 34°55' E 136°41'0 0.0
2018-Feb-19 13:00N 34°55' E 136°41'3 5.4
2018-Feb-19 12:30N 34°53' E 136°42'612.8
2018-Feb-19 12:00N 34°47' E 136°46'712.3
2018-Feb-19 11:28N 34°42' E 136°51'1812.3
2018-Feb-19 10:00N 34°33' E 137°10'6812.5
2018-Feb-19 04:31N 34°35' E 138°33'213.0
2018-Feb-19 04:23N 34°35' E 138°35'1113.2
2018-Feb-19 03:32N 34°35' E 138°48'013.5
2018-Feb-19 03:30N 34°35' E 138°49'612.6
2018-Feb-19 03:00N 34°36' E 138°57'912.8
2018-Feb-19 02:16N 34°43' E 139°03'413.8
2018-Feb-19 01:57N 34°47' E 139°06'813.6
2018-Feb-19 01:22N 34°54' E 139°12'612.7
2018-Feb-19 00:54N 34°57' E 139°18'612.4
2018-Feb-19 00:26N 34°59' E 139°24'512.1
2018-Feb-19 00:00N 35°02' E 139°30'712.4
2018-Feb-18 23:28N 35°05' E 139°37'713.6
2018-Feb-18 22:57N 35°10' E 139°44'613.0
2018-Feb-18 22:31N 35°15' E 139°46'612.8
2018-Feb-18 22:00N 35°21' E 139°42'612.2
2018-Feb-18 21:31N 35°26' E 139°45'713.1
2018-Feb-18 21:00N 35°30' E 139°52'613.1
2018-Feb-18 20:31N 35°31' E 140°00'1 1.9
2018-Feb-18 20:01N 35°31' E 140°01'0 0.0
2018-Feb-18 19:29N 35°31' E 140°01'0 0.1
2018-Feb-18 19:00N 35°31' E 140°01'0 0.0
2018-Feb-18 18:28N 35°31' E 140°01'0 0.0
2018-Feb-18 18:00N 35°31' E 140°01'0 0.0
2018-Feb-18 17:31N 35°31' E 140°01'0 0.0
2018-Feb-18 17:00N 35°31' E 140°01'0 0.0
2018-Feb-18 16:31N 35°31' E 140°01'0 0.0
2018-Feb-18 16:00N 35°31' E 140°01'0 0.0
2018-Feb-18 15:30N 35°31' E 140°01'0 0.0
2018-Feb-18 15:00N 35°31' E 140°01'0 0.0
2018-Feb-18 14:30N 35°31' E 140°01'0 0.0
2018-Feb-18 14:00N 35°31' E 140°01'0 0.0
2018-Feb-18 13:30N 35°31' E 140°01'0 0.0
2018-Feb-18 12:57N 35°31' E 140°01'0 0.0
2018-Feb-18 12:30N 35°31' E 140°01'0 0.0
2018-Feb-18 12:00N 35°31' E 140°01'0 0.0
2018-Feb-18 11:30N 35°31' E 140°01'0 0.0
2018-Feb-18 10:55N 35°31' E 140°01'0 0.0
2018-Feb-18 10:30N 35°31' E 140°01'0 0.0
2018-Feb-18 10:00N 35°31' E 140°01'0 0.0
2018-Feb-18 09:30N 35°31' E 140°01'0 0.0
2018-Feb-18 09:00N 35°31' E 140°01'0 0.0
2018-Feb-18 08:30N 35°31' E 140°01'1 1.0
2018-Feb-18 07:17N 35°31' E 140°03'0 0.0
2018-Feb-18 06:56N 35°31' E 140°03'0 0.0
2018-Feb-18 06:22N 35°31' E 140°03'0 0.0
2018-Feb-18 05:11N 35°31' E 140°03'0 0.0
2018-Feb-18 05:00N 35°31' E 140°03'0 0.0
2018-Feb-18 04:24N 35°31' E 140°03'0 0.0
2018-Feb-18 03:56N 35°31' E 140°03'0 0.0
2018-Feb-18 03:17N 35°31' E 140°03'0 0.0
2018-Feb-18 02:48N 35°31' E 140°03'1 3.4
2018-Feb-18 02:31N 35°31' E 140°02'0 0.3
2018-Feb-18 01:58N 35°31' E 140°01'0 0.0
2018-Feb-18 01:30N 35°31' E 140°01'0 0.0
2018-Feb-18 00:59N 35°31' E 140°01'0 0.0
2018-Feb-18 00:30N 35°31' E 140°01'0 0.0
2018-Feb-17 23:59N 35°31' E 140°01'0 0.0
2018-Feb-17 23:30N 35°31' E 140°01'0 0.0
2018-Feb-17 23:00N 35°31' E 140°01'0 0.0
2018-Feb-17 22:20N 35°31' E 140°01'0 0.0
2018-Feb-17 22:00N 35°31' E 140°01'4 7.6
2018-Feb-17 21:30N 35°30' E 139°57'612.0
2018-Feb-17 21:00N 35°27' E 139°50'611.9
2018-Feb-17 20:30N 35°23' E 139°46'510.8
2018-Feb-17 20:00N 35°17' E 139°45'611.6
2018-Feb-17 19:31N 35°12' E 139°47'611.2
2018-Feb-17 19:00N 35°07' E 139°44'611.6
2018-Feb-17 18:30N 35°03' E 139°38'1612.4
2018-Feb-17 17:11N 34°52' E 139°23'313.4
2018-Feb-17 16:56N 34°50' E 139°20'613.2
2018-Feb-17 16:30N 34°46' E 139°16'713.2
2018-Feb-17 15:59N 34°41' E 139°10'813.7
2018-Feb-17 15:26N 34°37' E 139°02'613.5
2018-Feb-17 15:00N 34°35' E 138°55'713.3
2018-Feb-17 14:29N 34°34' E 138°47'813.1
2018-Feb-17 13:53N 34°33' E 138°37'513.0
2018-Feb-17 13:29N 34°33' E 138°31'1013.0
2018-Feb-17 12:40N 34°33' E 138°18'213.7
2018-Feb-17 12:30N 34°33' E 138°15'5212.8
2018-Feb-17 08:27N 34°32' E 137°13'1611.5
2018-Feb-17 07:02N 34°38' E 136°54'112.4
2018-Feb-17 06:56N 34°38' E 136°53'512.1
2018-Feb-17 06:30N 34°42' E 136°48'612.8
2018-Feb-17 06:00N 34°48' E 136°45'612.9
2018-Feb-17 05:30N 34°54' E 136°43'5 9.3
2018-Feb-17 05:00N 34°58' E 136°39'0 0.0
2018-Feb-17 04:30N 34°58' E 136°39'0 0.0
2018-Feb-17 04:00N 34°58' E 136°39'0 0.0
2018-Feb-17 03:30N 34°58' E 136°39'0 0.0
2018-Feb-17 03:00N 34°58' E 136°39'0 0.0
2018-Feb-17 02:30N 34°58' E 136°39'0 0.0
2018-Feb-17 01:59N 34°58' E 136°39'0 0.0
2018-Feb-17 01:30N 34°58' E 136°39'0 0.0
2018-Feb-17 01:00N 34°58' E 136°39'0 0.0
2018-Feb-17 00:30N 34°58' E 136°39'0 0.0
2018-Feb-17 00:00N 34°58' E 136°39'0 0.0
2018-Feb-16 23:30N 34°58' E 136°39'0 0.0
2018-Feb-16 23:00N 34°58' E 136°39'2 3.6
2018-Feb-16 22:30N 34°57' E 136°41'0 0.2
2018-Feb-16 21:55N 34°57' E 136°41'0 0.0
2018-Feb-16 21:25N 34°57' E 136°41'0 0.0
2018-Feb-16 20:58N 34°57' E 136°41'0 0.0
2018-Feb-16 20:31N 34°57' E 136°41'0 0.1
2018-Feb-16 20:01N 34°57' E 136°41'0 0.0
2018-Feb-16 19:31N 34°57' E 136°41'0 0.0
2018-Feb-16 18:58N 34°57' E 136°41'0 0.0
2018-Feb-16 18:28N 34°57' E 136°41'0 0.1
2018-Feb-16 17:58N 34°57' E 136°41'0 0.1
2018-Feb-16 17:28N 34°57' E 136°41'0 0.0
2018-Feb-16 16:58N 34°57' E 136°41'0 0.1
2018-Feb-16 16:25N 34°57' E 136°41'0 0.1
2018-Feb-16 15:58N 34°57' E 136°41'0 0.1
2018-Feb-16 15:28N 34°57' E 136°41'0 0.0
2018-Feb-16 15:01N 34°57' E 136°41'0 0.1
2018-Feb-16 14:31N 34°57' E 136°41'0 0.1
2018-Feb-16 13:55N 34°57' E 136°41'0 0.0
2018-Feb-16 13:31N 34°57' E 136°41'0 0.0
2018-Feb-16 13:01N 34°57' E 136°41'0 0.0
2018-Feb-16 12:28N 34°57' E 136°41'0 0.1
2018-Feb-16 12:01N 34°57' E 136°41'0 0.1
2018-Feb-16 11:31N 34°57' E 136°41'0 0.0
2018-Feb-16 11:01N 34°57' E 136°41'0 0.0
2018-Feb-16 10:31N 34°57' E 136°41'0 0.0
2018-Feb-16 10:01N 34°57' E 136°41'0 0.0
2018-Feb-16 09:28N 34°57' E 136°41'0 0.0
2018-Feb-16 08:58N 34°57' E 136°41'0 0.0
2018-Feb-16 08:28N 34°57' E 136°41'0 0.0
2018-Feb-16 08:01N 34°57' E 136°41'0 0.0
2018-Feb-16 07:28N 34°57' E 136°41'0 0.0
2018-Feb-16 06:58N 34°57' E 136°41'0 0.0
2018-Feb-16 06:31N 34°57' E 136°41'0 0.0
2018-Feb-16 05:58N 34°57' E 136°41'0 0.0
2018-Feb-16 05:31N 34°57' E 136°41'0 0.1
2018-Feb-16 04:55N 34°57' E 136°41'0 0.0
2018-Feb-16 04:28N 34°57' E 136°41'0 0.0
2018-Feb-16 04:01N 34°57' E 136°41'0 0.1
2018-Feb-16 03:28N 34°57' E 136°41'0 0.1
2018-Feb-16 03:01N 34°57' E 136°41'0 0.0
2018-Feb-16 02:30N 34°57' E 136°41'0 0.0
2018-Feb-16 02:00N 34°57' E 136°41'0 0.0
2018-Feb-16 01:31N 34°57' E 136°41'0 0.1
2018-Feb-16 01:00N 34°57' E 136°41'0 0.0
2018-Feb-16 00:30N 34°57' E 136°41'0 0.0
2018-Feb-16 00:00N 34°57' E 136°41'2 3.2
2018-Feb-15 23:30N 34°58' E 136°39'1 2.0
2018-Feb-15 23:00N 34°57' E 136°39'0 0.0
2018-Feb-15 22:30N 34°57' E 136°39'0 0.0
2018-Feb-15 22:00N 34°57' E 136°39'0 0.0
2018-Feb-15 21:30N 34°57' E 136°39'0 0.0
2018-Feb-15 21:00N 34°57' E 136°39'0 0.0
2018-Feb-15 20:30N 34°57' E 136°39'0 0.0
2018-Feb-15 20:00N 34°57' E 136°39'0 0.0
2018-Feb-15 19:30N 34°57' E 136°39'0 0.0
2018-Feb-15 19:00N 34°57' E 136°39'0 0.0
2018-Feb-15 18:30N 34°57' E 136°39'0 0.0
2018-Feb-15 18:00N 34°57' E 136°39'0 0.0
2018-Feb-15 17:30N 34°57' E 136°39'0 0.0
2018-Feb-15 17:00N 34°57' E 136°39'0 0.0
2018-Feb-15 16:30N 34°57' E 136°39'0 0.0
2018-Feb-15 16:00N 34°57' E 136°39'0 0.0
2018-Feb-15 15:29N 34°57' E 136°39'0 0.0
2018-Feb-15 15:00N 34°57' E 136°39'0 0.0
2018-Feb-15 14:30N 34°57' E 136°39'0 0.0
2018-Feb-15 14:00N 34°57' E 136°39'0 0.0
2018-Feb-15 13:30N 34°57' E 136°39'0 0.0
2018-Feb-15 13:00N 34°57' E 136°39'0 0.0
2018-Feb-15 12:30N 34°57' E 136°39'0 0.0
2018-Feb-15 12:00N 34°57' E 136°39'0 0.0
2018-Feb-15 11:30N 34°57' E 136°39'0 0.0
2018-Feb-15 11:00N 34°57' E 136°39'0 0.0
2018-Feb-15 10:30N 34°57' E 136°39'0 0.0
2018-Feb-15 10:00N 34°57' E 136°39'0 0.0
2018-Feb-15 09:30N 34°57' E 136°39'0 0.0
2018-Feb-15 09:00N 34°57' E 136°39'0 0.0
2018-Feb-15 08:30N 34°57' E 136°39'0 0.0
2018-Feb-15 08:00N 34°57' E 136°39'0 0.0
2018-Feb-15 07:30N 34°57' E 136°39'0 0.0
2018-Feb-15 07:00N 34°57' E 136°39'0 0.0
2018-Feb-15 06:29N 34°57' E 136°39'0 0.0
2018-Feb-15 05:59N 34°57' E 136°39'0 0.0
2018-Feb-15 05:30N 34°57' E 136°39'0 0.0
2018-Feb-15 05:00N 34°57' E 136°39'0 0.0
2018-Feb-15 04:30N 34°57' E 136°39'0 0.0
2018-Feb-15 04:00N 34°57' E 136°39'0 0.0
2018-Feb-15 03:30N 34°57' E 136°39'0 0.0
2018-Feb-15 03:00N 34°57' E 136°39'0 0.0
2018-Feb-15 02:30N 34°57' E 136°39'0 0.0
2018-Feb-15 02:00N 34°57' E 136°39'0 0.0
2018-Feb-15 01:30N 34°57' E 136°39'0 0.0
2018-Feb-15 01:00N 34°57' E 136°39'0 0.0
2018-Feb-15 00:30N 34°57' E 136°39'0 0.0
2018-Feb-15 00:00N 34°57' E 136°39'1 2.9
2018-Feb-14 23:31N 34°57' E 136°40'2 4.5
2018-Feb-14 23:00N 34°55' E 136°41'0 0.0
2018-Feb-14 22:28N 34°55' E 136°41'0 0.0
2018-Feb-14 21:58N 34°55' E 136°41'0 0.0
2018-Feb-14 21:28N 34°55' E 136°41'0 0.0
2018-Feb-14 20:55N 34°55' E 136°41'0 0.0
2018-Feb-14 20:25N 34°55' E 136°41'0 0.0
2018-Feb-14 19:58N 34°55' E 136°41'0 0.0
2018-Feb-14 19:28N 34°55' E 136°41'0 0.0
2018-Feb-14 18:58N 34°55' E 136°41'0 0.0
2018-Feb-14 18:28N 34°55' E 136°41'0 0.0
2018-Feb-14 17:58N 34°55' E 136°41'0 0.0
2018-Feb-14 17:28N 34°55' E 136°41'0 0.0
2018-Feb-14 16:55N 34°55' E 136°41'0 0.0
2018-Feb-14 16:28N 34°55' E 136°41'0 0.0
2018-Feb-14 15:55N 34°55' E 136°41'0 0.0
2018-Feb-14 15:25N 34°55' E 136°41'0 0.0
2018-Feb-14 14:58N 34°55' E 136°41'0 0.0
2018-Feb-14 14:28N 34°55' E 136°41'0 0.0
2018-Feb-14 13:55N 34°55' E 136°41'0 0.0
2018-Feb-14 13:25N 34°55' E 136°41'0 0.0
2018-Feb-14 12:55N 34°55' E 136°41'0 0.0
2018-Feb-14 12:28N 34°55' E 136°41'0 0.1
2018-Feb-14 11:58N 34°55' E 136°41'0 0.1
2018-Feb-14 11:25N 34°55' E 136°41'0 0.1
2018-Feb-14 10:55N 34°55' E 136°41'0 0.0
2018-Feb-14 10:25N 34°55' E 136°41'0 0.0
2018-Feb-14 09:55N 34°55' E 136°41'0 0.0
2018-Feb-14 09:28N 34°55' E 136°41'0 0.0
2018-Feb-14 08:55N 34°55' E 136°41'0 0.0
2018-Feb-14 08:25N 34°55' E 136°41'0 0.1
2018-Feb-14 07:55N 34°55' E 136°41'0 0.0
2018-Feb-14 07:25N 34°55' E 136°41'0 0.0
2018-Feb-14 06:58N 34°55' E 136°41'0 0.0
2018-Feb-14 06:28N 34°55' E 136°41'0 0.0
2018-Feb-14 05:58N 34°55' E 136°41'0 0.0
2018-Feb-14 05:28N 34°55' E 136°41'0 0.0
2018-Feb-14 04:58N 34°55' E 136°41'0 0.0
2018-Feb-14 04:28N 34°55' E 136°41'0 0.0
2018-Feb-14 03:55N 34°55' E 136°41'0 0.0
2018-Feb-14 03:28N 34°55' E 136°41'0 0.0
2018-Feb-14 03:00N 34°55' E 136°41'0 0.0
2018-Feb-14 02:30N 34°55' E 136°41'0 0.0
2018-Feb-14 02:00N 34°55' E 136°41'0 0.0
2018-Feb-14 01:30N 34°55' E 136°41'0 0.0
2018-Feb-14 01:00N 34°55' E 136°41'0 0.0
2018-Feb-14 00:30N 34°55' E 136°41'0 0.0
2018-Feb-14 00:00N 34°55' E 136°41'0 0.0
2018-Feb-13 23:30N 34°55' E 136°41'0 0.0
2018-Feb-13 23:00N 34°55' E 136°41'0 0.1
2018-Feb-13 22:29N 34°55' E 136°41'0 0.0
2018-Feb-13 22:00N 34°55' E 136°41'0 0.0
2018-Feb-13 21:29N 34°55' E 136°41'0 0.0
2018-Feb-13 21:00N 34°55' E 136°41'0 0.0
2018-Feb-13 20:30N 34°55' E 136°41'0 0.0
2018-Feb-13 20:00N 34°55' E 136°41'0 0.0
2018-Feb-13 19:30N 34°55' E 136°41'0 0.0
2018-Feb-13 19:00N 34°55' E 136°41'0 0.0
2018-Feb-13 18:30N 34°55' E 136°41'0 0.0
2018-Feb-13 18:00N 34°55' E 136°41'0 0.0
2018-Feb-13 17:30N 34°55' E 136°41'0 0.0
2018-Feb-13 17:00N 34°55' E 136°41'0 0.0
2018-Feb-13 16:30N 34°55' E 136°41'0 0.0
2018-Feb-13 16:00N 34°55' E 136°41'2 4.9
2018-Feb-13 15:30N 34°53' E 136°42'713.0
2018-Feb-13 15:00N 34°47' E 136°47'612.6
2018-Feb-13 14:29N 34°42' E 136°51'1811.5
2018-Feb-13 12:57N 34°33' E 137°10'6410.6
2018-Feb-13 06:54N 34°35' E 138°28'4 8.2
2018-Feb-13 06:28N 34°35' E 138°32'4 8.2
2018-Feb-13 05:58N 34°35' E 138°37'4 7.6
2018-Feb-13 05:26N 34°35' E 138°42'6 7.0
2018-Feb-13 04:38N 34°35' E 138°49'1 7.2
2018-Feb-13 04:30N 34°35' E 138°50'4 6.8
2018-Feb-13 03:56N 34°35' E 138°54'4 8.3
2018-Feb-13 03:25N 34°37' E 138°59'710.8
2018-Feb-13 02:47N 34°43' E 139°04'510.9
2018-Feb-13 02:22N 34°47' E 139°06'911.6
2018-Feb-13 01:36N 34°55' E 139°12'212.6
2018-Feb-13 01:25N 34°56' E 139°14'512.3
2018-Feb-13 01:00N 34°58' E 139°19'612.2
2018-Feb-13 00:30N 35°01' E 139°26'611.9
2018-Feb-13 00:00N 35°04' E 139°33'611.7
2018-Feb-12 23:30N 35°06' E 139°39'611.9
2018-Feb-12 22:59N 35°11' E 139°44'612.1
2018-Feb-12 22:30N 35°16' E 139°45'713.3
2018-Feb-12 22:00N 35°22' E 139°42'713.1
2018-Feb-12 21:30N 35°28' E 139°47'713.4
2018-Feb-12 20:59N 35°34' E 139°52'2 5.1
2018-Feb-12 20:30N 35°36' E 139°53'0 0.0
2018-Feb-12 20:00N 35°36' E 139°53'0 0.0
2018-Feb-12 19:18N 35°36' E 139°53'0 0.2
2018-Feb-12 19:00N 35°36' E 139°53'0 0.0
2018-Feb-12 18:30N 35°36' E 139°53'0 0.0
2018-Feb-12 17:48N 35°36' E 139°53'0 0.0
2018-Feb-12 17:21N 35°36' E 139°53'0 0.0
2018-Feb-12 17:00N 35°36' E 139°53'0 0.0
2018-Feb-12 16:18N 35°36' E 139°53'0 0.0
2018-Feb-12 14:45N 35°36' E 139°53'0 0.0
2018-Feb-12 14:18N 35°36' E 139°53'0 0.0
2018-Feb-12 13:06N 35°36' E 139°53'0 0.0
2018-Feb-12 12:48N 35°36' E 139°53'0 0.0
2018-Feb-12 12:27N 35°36' E 139°53'0 0.0
2018-Feb-12 11:33N 35°36' E 139°53'0 0.0
2018-Feb-12 05:54N 35°36' E 139°53'  
Track history (hours):
 
Tides and Currents Weather Stations Pressure Air Temp Water Temp Dewpoint Dewpoint Depression Visibility Wind Speed Wind Dir Waves Ship Positions

Asuzanmaru

Last reported at 2018-Feb-22 04:28 UTC. Time now 2018-Feb-22 04:49 UTC.
Position N 34°58' E 136°39'.

Length 65 m; draft 3.7 m.

Type: Tanker. MMSI: 431001002.

Date/timePositionNaut miles runAvg speedWind from/ knotsBaromVisibWave heightAir tempDewpointWater temp
2018-Feb-22 04:28N 34°58' E 136°39'0 0.1
2018-Feb-22 03:58N 34°58' E 136°39'0 0.0
2018-Feb-22 03:28N 34°58' E 136°39'0 0.0
2018-Feb-22 02:52N 34°58' E 136°39'0 0.0
2018-Feb-22 02:28N 34°58' E 136°39'4 7.9
2018-Feb-22 02:00N 34°55' E 136°42'613.0
2018-Feb-22 01:30N 34°49' E 136°46'712.8
2018-Feb-22 00:59N 34°43' E 136°50'1912.2
2018-Feb-21 23:26N 34°33' E 137°09'6412.4
2018-Feb-21 18:17N 34°34' E 138°27'512.5
2018-Feb-21 17:52N 34°35' E 138°33'612.3
2018-Feb-21 17:22N 34°35' E 138°41'712.7
2018-Feb-21 16:51N 34°35' E 138°49'512.4
2018-Feb-21 16:27N 34°35' E 138°55'1012.2
2018-Feb-21 15:36N 34°43' E 139°03'413.9
2018-Feb-21 15:20N 34°46' E 139°06'1412.8
2018-Feb-21 14:16N 34°57' E 139°16'312.7
2018-Feb-21 14:00N 34°58' E 139°20'712.4
2018-Feb-21 13:26N 35°01' E 139°27'512.7
2018-Feb-21 13:00N 35°04' E 139°33'713.3
2018-Feb-21 12:31N 35°07' E 139°41'713.5
2018-Feb-21 12:00N 35°12' E 139°46'612.4
2018-Feb-21 11:30N 35°18' E 139°44'612.2
2018-Feb-21 11:00N 35°24' E 139°43'713.1
2018-Feb-21 10:30N 35°28' E 139°50'612.8
2018-Feb-21 10:00N 35°30' E 139°57'4 8.9
2018-Feb-21 09:30N 35°31' E 140°03'0 0.0
2018-Feb-21 09:00N 35°31' E 140°03'0 0.0
2018-Feb-21 08:29N 35°31' E 140°03'0 0.0
2018-Feb-21 07:58N 35°31' E 140°03'0 0.0
2018-Feb-21 07:30N 35°31' E 140°03'0 0.0
2018-Feb-21 07:00N 35°31' E 140°03'0 0.0
2018-Feb-21 06:30N 35°31' E 140°03'0 0.0
2018-Feb-21 06:00N 35°31' E 140°03'0 0.0
2018-Feb-21 05:30N 35°31' E 140°03'0 0.0
2018-Feb-21 05:00N 35°31' E 140°03'1 1.0
2018-Feb-21 04:30N 35°31' E 140°02'1 1.2
2018-Feb-21 04:00N 35°31' E 140°01'0 0.0
2018-Feb-21 03:30N 35°31' E 140°01'0 0.0
2018-Feb-21 02:57N 35°31' E 140°01'0 0.0
2018-Feb-21 02:30N 35°31' E 140°01'0 0.0
2018-Feb-21 02:00N 35°31' E 140°01'0 0.0
2018-Feb-21 01:30N 35°31' E 140°01'0 0.0
2018-Feb-21 01:00N 35°31' E 140°01'0 0.0
2018-Feb-21 00:30N 35°31' E 140°01'0 0.0
2018-Feb-21 00:00N 35°31' E 140°01'0 0.0
2018-Feb-20 23:30N 35°31' E 140°01'0 0.0
2018-Feb-20 23:00N 35°31' E 140°01'0 0.0
2018-Feb-20 22:30N 35°31' E 140°01'0 0.0
2018-Feb-20 22:00N 35°31' E 140°01'0 0.0
2018-Feb-20 21:30N 35°31' E 140°01'1 2.2
2018-Feb-20 21:00N 35°31' E 140°00'612.2
2018-Feb-20 20:30N 35°29' E 139°53'612.1
2018-Feb-20 20:00N 35°25' E 139°47'612.4
2018-Feb-20 19:30N 35°19' E 139°44'612.1
2018-Feb-20 19:00N 35°14' E 139°47'612.4
2018-Feb-20 18:30N 35°08' E 139°45'611.7
2018-Feb-20 18:00N 35°04' E 139°40'611.7
2018-Feb-20 17:29N 34°60' E 139°34'1711.8
2018-Feb-20 16:04N 34°49' E 139°19'112.9
2018-Feb-20 15:58N 34°48' E 139°18'1013.6
2018-Feb-20 15:15N 34°41' E 139°10'312.4
2018-Feb-20 15:00N 34°39' E 139°06'812.5
2018-Feb-20 14:24N 34°36' E 138°58'613.7
2018-Feb-20 13:56N 34°34' E 138°50'612.7
2018-Feb-20 13:29N 34°33' E 138°44'712.4
2018-Feb-20 12:56N 34°32' E 138°35'913.1
2018-Feb-20 12:17N 34°32' E 138°25'712.8
2018-Feb-20 11:46N 34°32' E 138°17'4513.1
2018-Feb-20 08:17N 34°32' E 137°22'2412.1
2018-Feb-20 06:19N 34°38' E 136°54'412.6
2018-Feb-20 06:00N 34°40' E 136°50'613.1
2018-Feb-20 05:30N 34°46' E 136°47'612.9
2018-Feb-20 05:00N 34°52' E 136°43'612.7
2018-Feb-20 04:30N 34°58' E 136°41'2 3.5
2018-Feb-20 04:00N 34°58' E 136°39'0 0.0
2018-Feb-20 03:29N 34°58' E 136°39'0 0.0
2018-Feb-20 03:00N 34°58' E 136°39'0 0.0
2018-Feb-20 02:30N 34°58' E 136°39'0 0.0
2018-Feb-20 01:58N 34°58' E 136°39'0 0.0
2018-Feb-20 01:30N 34°58' E 136°39'0 0.0
2018-Feb-20 01:00N 34°58' E 136°39'0 0.0
2018-Feb-20 00:30N 34°58' E 136°39'0 0.0
2018-Feb-20 00:00N 34°58' E 136°39'0 0.0
2018-Feb-19 23:30N 34°58' E 136°39'0 0.0
2018-Feb-19 23:00N 34°58' E 136°39'2 4.8
2018-Feb-19 22:30N 34°56' E 136°41'1 1.3
2018-Feb-19 22:00N 34°55' E 136°41'0 0.0
2018-Feb-19 21:30N 34°55' E 136°41'0 0.0
2018-Feb-19 20:59N 34°55' E 136°41'0 0.0
2018-Feb-19 20:30N 34°55' E 136°41'0 0.0
2018-Feb-19 20:00N 34°55' E 136°41'0 0.0
2018-Feb-19 19:30N 34°55' E 136°41'0 0.0
2018-Feb-19 19:00N 34°55' E 136°41'0 0.0
2018-Feb-19 18:30N 34°55' E 136°41'0 0.0
2018-Feb-19 18:00N 34°55' E 136°41'0 0.0
2018-Feb-19 17:30N 34°55' E 136°41'0 0.1
2018-Feb-19 17:00N 34°55' E 136°41'0 0.1
2018-Feb-19 16:30N 34°55' E 136°41'0 0.0
2018-Feb-19 16:00N 34°55' E 136°41'0 0.0
2018-Feb-19 15:30N 34°55' E 136°41'0 0.0
2018-Feb-19 15:00N 34°55' E 136°41'0 0.0
2018-Feb-19 14:30N 34°55' E 136°41'0 0.0
2018-Feb-19 14:00N 34°55' E 136°41'0 0.0
2018-Feb-19 13:30N 34°55' E 136°41'0 0.0
2018-Feb-19 13:00N 34°55' E 136°41'3 5.4
2018-Feb-19 12:30N 34°53' E 136°42'612.8
2018-Feb-19 12:00N 34°47' E 136°46'712.3
2018-Feb-19 11:28N 34°42' E 136°51'1812.3
2018-Feb-19 10:00N 34°33' E 137°10'6812.5
2018-Feb-19 04:31N 34°35' E 138°33'213.0
2018-Feb-19 04:23N 34°35' E 138°35'1113.2
2018-Feb-19 03:32N 34°35' E 138°48'013.5
2018-Feb-19 03:30N 34°35' E 138°49'612.6
2018-Feb-19 03:00N 34°36' E 138°57'912.8
2018-Feb-19 02:16N 34°43' E 139°03'413.8
2018-Feb-19 01:57N 34°47' E 139°06'813.6
2018-Feb-19 01:22N 34°54' E 139°12'612.7
2018-Feb-19 00:54N 34°57' E 139°18'612.4
2018-Feb-19 00:26N 34°59' E 139°24'512.1
2018-Feb-19 00:00N 35°02' E 139°30'712.4
2018-Feb-18 23:28N 35°05' E 139°37'713.6
2018-Feb-18 22:57N 35°10' E 139°44'613.0
2018-Feb-18 22:31N 35°15' E 139°46'612.8
2018-Feb-18 22:00N 35°21' E 139°42'612.2
2018-Feb-18 21:31N 35°26' E 139°45'713.1
2018-Feb-18 21:00N 35°30' E 139°52'613.1
2018-Feb-18 20:31N 35°31' E 140°00'1 1.9
2018-Feb-18 20:01N 35°31' E 140°01'0 0.0
2018-Feb-18 19:29N 35°31' E 140°01'0 0.1
2018-Feb-18 19:00N 35°31' E 140°01'0 0.0
2018-Feb-18 18:28N 35°31' E 140°01'0 0.0
2018-Feb-18 18:00N 35°31' E 140°01'0 0.0
2018-Feb-18 17:31N 35°31' E 140°01'0 0.0
2018-Feb-18 17:00N 35°31' E 140°01'0 0.0
2018-Feb-18 16:31N 35°31' E 140°01'0 0.0
2018-Feb-18 16:00N 35°31' E 140°01'0 0.0
2018-Feb-18 15:30N 35°31' E 140°01'0 0.0
2018-Feb-18 15:00N 35°31' E 140°01'0 0.0
2018-Feb-18 14:30N 35°31' E 140°01'0 0.0
2018-Feb-18 14:00N 35°31' E 140°01'0 0.0
2018-Feb-18 13:30N 35°31' E 140°01'0 0.0
2018-Feb-18 12:57N 35°31' E 140°01'0 0.0
2018-Feb-18 12:30N 35°31' E 140°01'0 0.0
2018-Feb-18 12:00N 35°31' E 140°01'0 0.0
2018-Feb-18 11:30N 35°31' E 140°01'0 0.0
2018-Feb-18 10:55N 35°31' E 140°01'0 0.0
2018-Feb-18 10:30N 35°31' E 140°01'0 0.0
2018-Feb-18 10:00N 35°31' E 140°01'0 0.0
2018-Feb-18 09:30N 35°31' E 140°01'0 0.0
2018-Feb-18 09:00N 35°31' E 140°01'0 0.0
2018-Feb-18 08:30N 35°31' E 140°01'1 1.0
2018-Feb-18 07:17N 35°31' E 140°03'0 0.0
2018-Feb-18 06:56N 35°31' E 140°03'0 0.0
2018-Feb-18 06:22N 35°31' E 140°03'0 0.0
2018-Feb-18 05:11N 35°31' E 140°03'0 0.0
2018-Feb-18 05:00N 35°31' E 140°03'0 0.0
2018-Feb-18 04:24N 35°31' E 140°03'0 0.0
2018-Feb-18 03:56N 35°31' E 140°03'0 0.0
2018-Feb-18 03:17N 35°31' E 140°03'0 0.0
2018-Feb-18 02:48N 35°31' E 140°03'1 3.4
2018-Feb-18 02:31N 35°31' E 140°02'0 0.3
2018-Feb-18 01:58N 35°31' E 140°01'0 0.0
2018-Feb-18 01:30N 35°31' E 140°01'0 0.0
2018-Feb-18 00:59N 35°31' E 140°01'0 0.0
2018-Feb-18 00:30N 35°31' E 140°01'0 0.0
2018-Feb-17 23:59N 35°31' E 140°01'0 0.0
2018-Feb-17 23:30N 35°31' E 140°01'0 0.0
2018-Feb-17 23:00N 35°31' E 140°01'0 0.0
2018-Feb-17 22:20N 35°31' E 140°01'0 0.0
2018-Feb-17 22:00N 35°31' E 140°01'4 7.6
2018-Feb-17 21:30N 35°30' E 139°57'612.0
2018-Feb-17 21:00N 35°27' E 139°50'611.9
2018-Feb-17 20:30N 35°23' E 139°46'510.8
2018-Feb-17 20:00N 35°17' E 139°45'611.6
2018-Feb-17 19:31N 35°12' E 139°47'611.2
2018-Feb-17 19:00N 35°07' E 139°44'611.6
2018-Feb-17 18:30N 35°03' E 139°38'1612.4
2018-Feb-17 17:11N 34°52' E 139°23'313.4
2018-Feb-17 16:56N 34°50' E 139°20'613.2
2018-Feb-17 16:30N 34°46' E 139°16'713.2
2018-Feb-17 15:59N 34°41' E 139°10'813.7
2018-Feb-17 15:26N 34°37' E 139°02'613.5
2018-Feb-17 15:00N 34°35' E 138°55'713.3
2018-Feb-17 14:29N 34°34' E 138°47'813.1
2018-Feb-17 13:53N 34°33' E 138°37'513.0
2018-Feb-17 13:29N 34°33' E 138°31'1013.0
2018-Feb-17 12:40N 34°33' E 138°18'213.7
2018-Feb-17 12:30N 34°33' E 138°15'5212.8
2018-Feb-17 08:27N 34°32' E 137°13'1611.5
2018-Feb-17 07:02N 34°38' E 136°54'112.4
2018-Feb-17 06:56N 34°38' E 136°53'512.1
2018-Feb-17 06:30N 34°42' E 136°48'612.8
2018-Feb-17 06:00N 34°48' E 136°45'612.9
2018-Feb-17 05:30N 34°54' E 136°43'5 9.3
2018-Feb-17 05:00N 34°58' E 136°39'0 0.0
2018-Feb-17 04:30N 34°58' E 136°39'0 0.0
2018-Feb-17 04:00N 34°58' E 136°39'0 0.0
2018-Feb-17 03:30N 34°58' E 136°39'0 0.0
2018-Feb-17 03:00N 34°58' E 136°39'0 0.0
2018-Feb-17 02:30N 34°58' E 136°39'0 0.0
2018-Feb-17 01:59N 34°58' E 136°39'0 0.0
2018-Feb-17 01:30N 34°58' E 136°39'0 0.0
2018-Feb-17 01:00N 34°58' E 136°39'0 0.0
2018-Feb-17 00:30N 34°58' E 136°39'0 0.0
2018-Feb-17 00:00N 34°58' E 136°39'0 0.0
2018-Feb-16 23:30N 34°58' E 136°39'0 0.0
2018-Feb-16 23:00N 34°58' E 136°39'2 3.6
2018-Feb-16 22:30N 34°57' E 136°41'0 0.2
2018-Feb-16 21:55N 34°57' E 136°41'0 0.0
2018-Feb-16 21:25N 34°57' E 136°41'0 0.0
2018-Feb-16 20:58N 34°57' E 136°41'0 0.0
2018-Feb-16 20:31N 34°57' E 136°41'0 0.1
2018-Feb-16 20:01N 34°57' E 136°41'0 0.0
2018-Feb-16 19:31N 34°57' E 136°41'0 0.0
2018-Feb-16 18:58N 34°57' E 136°41'0 0.0
2018-Feb-16 18:28N 34°57' E 136°41'0 0.1
2018-Feb-16 17:58N 34°57' E 136°41'0 0.1
2018-Feb-16 17:28N 34°57' E 136°41'0 0.0
2018-Feb-16 16:58N 34°57' E 136°41'0 0.1
2018-Feb-16 16:25N 34°57' E 136°41'0 0.1
2018-Feb-16 15:58N 34°57' E 136°41'0 0.1
2018-Feb-16 15:28N 34°57' E 136°41'0 0.0
2018-Feb-16 15:01N 34°57' E 136°41'0 0.1
2018-Feb-16 14:31N 34°57' E 136°41'0 0.1
2018-Feb-16 13:55N 34°57' E 136°41'0 0.0
2018-Feb-16 13:31N 34°57' E 136°41'0 0.0
2018-Feb-16 13:01N 34°57' E 136°41'0 0.0
2018-Feb-16 12:28N 34°57' E 136°41'0 0.1
2018-Feb-16 12:01N 34°57' E 136°41'0 0.1
2018-Feb-16 11:31N 34°57' E 136°41'0 0.0
2018-Feb-16 11:01N 34°57' E 136°41'0 0.0
2018-Feb-16 10:31N 34°57' E 136°41'0 0.0
2018-Feb-16 10:01N 34°57' E 136°41'0 0.0
2018-Feb-16 09:28N 34°57' E 136°41'0 0.0
2018-Feb-16 08:58N 34°57' E 136°41'0 0.0
2018-Feb-16 08:28N 34°57' E 136°41'0 0.0
2018-Feb-16 08:01N 34°57' E 136°41'0 0.0
2018-Feb-16 07:28N 34°57' E 136°41'0 0.0
2018-Feb-16 06:58N 34°57' E 136°41'0 0.0
2018-Feb-16 06:31N 34°57' E 136°41'0 0.0
2018-Feb-16 05:58N 34°57' E 136°41'0 0.0
2018-Feb-16 05:31N 34°57' E 136°41'0 0.1
2018-Feb-16 04:55N 34°57' E 136°41'0 0.0
2018-Feb-16 04:28N 34°57' E 136°41'0 0.0
2018-Feb-16 04:01N 34°57' E 136°41'0 0.1
2018-Feb-16 03:28N 34°57' E 136°41'0 0.1
2018-Feb-16 03:01N 34°57' E 136°41'0 0.0
2018-Feb-16 02:30N 34°57' E 136°41'0 0.0
2018-Feb-16 02:00N 34°57' E 136°41'0 0.0
2018-Feb-16 01:31N 34°57' E 136°41'0 0.1
2018-Feb-16 01:00N 34°57' E 136°41'0 0.0
2018-Feb-16 00:30N 34°57' E 136°41'0 0.0
2018-Feb-16 00:00N 34°57' E 136°41'2 3.2
2018-Feb-15 23:30N 34°58' E 136°39'1 2.0
2018-Feb-15 23:00N 34°57' E 136°39'0 0.0
2018-Feb-15 22:30N 34°57' E 136°39'0 0.0
2018-Feb-15 22:00N 34°57' E 136°39'0 0.0
2018-Feb-15 21:30N 34°57' E 136°39'0 0.0
2018-Feb-15 21:00N 34°57' E 136°39'0 0.0
2018-Feb-15 20:30N 34°57' E 136°39'0 0.0
2018-Feb-15 20:00N 34°57' E 136°39'0 0.0
2018-Feb-15 19:30N 34°57' E 136°39'0 0.0
2018-Feb-15 19:00N 34°57' E 136°39'0 0.0
2018-Feb-15 18:30N 34°57' E 136°39'0 0.0
2018-Feb-15 18:00N 34°57' E 136°39'0 0.0
2018-Feb-15 17:30N 34°57' E 136°39'0 0.0
2018-Feb-15 17:00N 34°57' E 136°39'0 0.0
2018-Feb-15 16:30N 34°57' E 136°39'0 0.0
2018-Feb-15 16:00N 34°57' E 136°39'0 0.0
2018-Feb-15 15:29N 34°57' E 136°39'0 0.0
2018-Feb-15 15:00N 34°57' E 136°39'0 0.0
2018-Feb-15 14:30N 34°57' E 136°39'0 0.0
2018-Feb-15 14:00N 34°57' E 136°39'0 0.0
2018-Feb-15 13:30N 34°57' E 136°39'0 0.0
2018-Feb-15 13:00N 34°57' E 136°39'0 0.0
2018-Feb-15 12:30N 34°57' E 136°39'0 0.0
2018-Feb-15 12:00N 34°57' E 136°39'0 0.0
2018-Feb-15 11:30N 34°57' E 136°39'0 0.0
2018-Feb-15 11:00N 34°57' E 136°39'0 0.0
2018-Feb-15 10:30N 34°57' E 136°39'0 0.0
2018-Feb-15 10:00N 34°57' E 136°39'0 0.0
2018-Feb-15 09:30N 34°57' E 136°39'0 0.0
2018-Feb-15 09:00N 34°57' E 136°39'0 0.0
2018-Feb-15 08:30N 34°57' E 136°39'0 0.0
2018-Feb-15 08:00N 34°57' E 136°39'0 0.0
2018-Feb-15 07:30N 34°57' E 136°39'0 0.0
2018-Feb-15 07:00N 34°57' E 136°39'0 0.0
2018-Feb-15 06:29N 34°57' E 136°39'0 0.0
2018-Feb-15 05:59N 34°57' E 136°39'0 0.0
2018-Feb-15 05:30N 34°57' E 136°39'0 0.0
2018-Feb-15 05:00N 34°57' E 136°39'0 0.0
2018-Feb-15 04:30N 34°57' E 136°39'0 0.0
2018-Feb-15 04:00N 34°57' E 136°39'0 0.0
2018-Feb-15 03:30N 34°57' E 136°39'0 0.0
2018-Feb-15 03:00N 34°57' E 136°39'0 0.0
2018-Feb-15 02:30N 34°57' E 136°39'0 0.0
2018-Feb-15 02:00N 34°57' E 136°39'0 0.0
2018-Feb-15 01:30N 34°57' E 136°39'0 0.0
2018-Feb-15 01:00N 34°57' E 136°39'0 0.0
2018-Feb-15 00:30N 34°57' E 136°39'0 0.0
2018-Feb-15 00:00N 34°57' E 136°39'1 2.9
2018-Feb-14 23:31N 34°57' E 136°40'2 4.5
2018-Feb-14 23:00N 34°55' E 136°41'0 0.0
2018-Feb-14 22:28N 34°55' E 136°41'0 0.0
2018-Feb-14 21:58N 34°55' E 136°41'0 0.0
2018-Feb-14 21:28N 34°55' E 136°41'0 0.0
2018-Feb-14 20:55N 34°55' E 136°41'0 0.0
2018-Feb-14 20:25N 34°55' E 136°41'0 0.0
2018-Feb-14 19:58N 34°55' E 136°41'0 0.0
2018-Feb-14 19:28N 34°55' E 136°41'0 0.0
2018-Feb-14 18:58N 34°55' E 136°41'0 0.0
2018-Feb-14 18:28N 34°55' E 136°41'0 0.0
2018-Feb-14 17:58N 34°55' E 136°41'0 0.0
2018-Feb-14 17:28N 34°55' E 136°41'0 0.0
2018-Feb-14 16:55N 34°55' E 136°41'0 0.0
2018-Feb-14 16:28N 34°55' E 136°41'0 0.0
2018-Feb-14 15:55N 34°55' E 136°41'0 0.0
2018-Feb-14 15:25N 34°55' E 136°41'0 0.0
2018-Feb-14 14:58N 34°55' E 136°41'0 0.0
2018-Feb-14 14:28N 34°55' E 136°41'0 0.0
2018-Feb-14 13:55N 34°55' E 136°41'0 0.0
2018-Feb-14 13:25N 34°55' E 136°41'0 0.0
2018-Feb-14 12:55N 34°55' E 136°41'0 0.0
2018-Feb-14 12:28N 34°55' E 136°41'0 0.1
2018-Feb-14 11:58N 34°55' E 136°41'0 0.1
2018-Feb-14 11:25N 34°55' E 136°41'0 0.1
2018-Feb-14 10:55N 34°55' E 136°41'0 0.0
2018-Feb-14 10:25N 34°55' E 136°41'0 0.0
2018-Feb-14 09:55N 34°55' E 136°41'0 0.0
2018-Feb-14 09:28N 34°55' E 136°41'0 0.0
2018-Feb-14 08:55N 34°55' E 136°41'0 0.0
2018-Feb-14 08:25N 34°55' E 136°41'0 0.1
2018-Feb-14 07:55N 34°55' E 136°41'0 0.0
2018-Feb-14 07:25N 34°55' E 136°41'0 0.0
2018-Feb-14 06:58N 34°55' E 136°41'0 0.0
2018-Feb-14 06:28N 34°55' E 136°41'0 0.0
2018-Feb-14 05:58N 34°55' E 136°41'0 0.0
2018-Feb-14 05:28N 34°55' E 136°41'0 0.0
2018-Feb-14 04:58N 34°55' E 136°41'0 0.0
2018-Feb-14 04:28N 34°55' E 136°41'0 0.0
2018-Feb-14 03:55N 34°55' E 136°41'0 0.0
2018-Feb-14 03:28N 34°55' E 136°41'0 0.0
2018-Feb-14 03:00N 34°55' E 136°41'0 0.0
2018-Feb-14 02:30N 34°55' E 136°41'0 0.0
2018-Feb-14 02:00N 34°55' E 136°41'0 0.0
2018-Feb-14 01:30N 34°55' E 136°41'0 0.0
2018-Feb-14 01:00N 34°55' E 136°41'0 0.0
2018-Feb-14 00:30N 34°55' E 136°41'0 0.0
2018-Feb-14 00:00N 34°55' E 136°41'0 0.0
2018-Feb-13 23:30N 34°55' E 136°41'0 0.0
2018-Feb-13 23:00N 34°55' E 136°41'0 0.1
2018-Feb-13 22:29N 34°55' E 136°41'0 0.0
2018-Feb-13 22:00N 34°55' E 136°41'0 0.0
2018-Feb-13 21:29N 34°55' E 136°41'0 0.0
2018-Feb-13 21:00N 34°55' E 136°41'0 0.0
2018-Feb-13 20:30N 34°55' E 136°41'0 0.0
2018-Feb-13 20:00N 34°55' E 136°41'0 0.0
2018-Feb-13 19:30N 34°55' E 136°41'0 0.0
2018-Feb-13 19:00N 34°55' E 136°41'0 0.0
2018-Feb-13 18:30N 34°55' E 136°41'0 0.0
2018-Feb-13 18:00N 34°55' E 136°41'0 0.0
2018-Feb-13 17:30N 34°55' E 136°41'0 0.0
2018-Feb-13 17:00N 34°55' E 136°41'0 0.0
2018-Feb-13 16:30N 34°55' E 136°41'0 0.0
2018-Feb-13 16:00N 34°55' E 136°41'2 4.9
2018-Feb-13 15:30N 34°53' E 136°42'713.0
2018-Feb-13 15:00N 34°47' E 136°47'612.6
2018-Feb-13 14:29N 34°42' E 136°51'1811.5
2018-Feb-13 12:57N 34°33' E 137°10'6410.6
2018-Feb-13 06:54N 34°35' E 138°28'4 8.2
2018-Feb-13 06:28N 34°35' E 138°32'4 8.2
2018-Feb-13 05:58N 34°35' E 138°37'4 7.6
2018-Feb-13 05:26N 34°35' E 138°42'6 7.0
2018-Feb-13 04:38N 34°35' E 138°49'1 7.2
2018-Feb-13 04:30N 34°35' E 138°50'4 6.8
2018-Feb-13 03:56N 34°35' E 138°54'4 8.3
2018-Feb-13 03:25N 34°37' E 138°59'710.8
2018-Feb-13 02:47N 34°43' E 139°04'510.9
2018-Feb-13 02:22N 34°47' E 139°06'911.6
2018-Feb-13 01:36N 34°55' E 139°12'212.6
2018-Feb-13 01:25N 34°56' E 139°14'512.3
2018-Feb-13 01:00N 34°58' E 139°19'612.2
2018-Feb-13 00:30N 35°01' E 139°26'611.9
2018-Feb-13 00:00N 35°04' E 139°33'611.7
2018-Feb-12 23:30N 35°06' E 139°39'611.9
2018-Feb-12 22:59N 35°11' E 139°44'612.1
2018-Feb-12 22:30N 35°16' E 139°45'713.3
2018-Feb-12 22:00N 35°22' E 139°42'713.1
2018-Feb-12 21:30N 35°28' E 139°47'713.4
2018-Feb-12 20:59N 35°34' E 139°52'2 5.1
2018-Feb-12 20:30N 35°36' E 139°53'0 0.0
2018-Feb-12 20:00N 35°36' E 139°53'0 0.0
2018-Feb-12 19:18N 35°36' E 139°53'0 0.2
2018-Feb-12 19:00N 35°36' E 139°53'0 0.0
2018-Feb-12 18:30N 35°36' E 139°53'0 0.0
2018-Feb-12 17:48N 35°36' E 139°53'0 0.0
2018-Feb-12 17:21N 35°36' E 139°53'0 0.0
2018-Feb-12 17:00N 35°36' E 139°53'0 0.0
2018-Feb-12 16:18N 35°36' E 139°53'0 0.0
2018-Feb-12 14:45N 35°36' E 139°53'0 0.0
2018-Feb-12 14:18N 35°36' E 139°53'0 0.0
2018-Feb-12 13:06N 35°36' E 139°53'0 0.0
2018-Feb-12 12:48N 35°36' E 139°53'0 0.0
2018-Feb-12 12:27N 35°36' E 139°53'0 0.0
2018-Feb-12 11:33N 35°36' E 139°53'0 0.0
2018-Feb-12 05:54N 35°36' E 139°53'  

Dump ship's entire track history